createdAt,value
2017-04-06T00:00:17.009Z,0
2017-04-06T00:01:38.835Z,0
2017-04-06T00:03:00.656Z,0
2017-04-06T00:04:22.862Z,0
2017-04-06T00:05:44.992Z,0
2017-04-06T00:07:06.506Z,0
2017-04-06T00:08:28.963Z,0
2017-04-06T00:09:50.835Z,0
2017-04-06T00:11:13.016Z,0
2017-04-06T00:12:34.817Z,0
2017-04-06T00:13:56.633Z,0
2017-04-06T00:15:19.028Z,0
2017-04-06T00:16:41.157Z,0
2017-04-06T00:18:03.693Z,0
2017-04-06T00:19:25.521Z,0
2017-04-06T00:20:48.913Z,0
2017-04-06T00:22:11.140Z,0
2017-04-06T00:23:33.089Z,0
2017-04-06T00:24:55.226Z,0
2017-04-06T00:26:16.717Z,0
2017-04-06T00:27:38.837Z,0
2017-04-06T00:29:00.659Z,0
2017-04-06T00:30:22.835Z,0
2017-04-06T00:31:44.600Z,0
2017-04-06T00:33:06.420Z,0
2017-04-06T00:34:28.244Z,0
2017-04-06T00:35:49.845Z,0
2017-04-06T00:37:12.585Z,0
2017-04-06T00:38:34.398Z,0
2017-04-06T00:39:56.848Z,0
2017-04-06T00:41:18.668Z,0
2017-04-06T00:42:41.395Z,0
2017-04-06T00:44:03.586Z,0
2017-04-06T00:45:25.533Z,0
2017-04-06T00:46:47.347Z,0
2017-04-06T00:48:09.094Z,0
2017-04-06T00:49:30.360Z,0
2017-04-06T00:50:52.194Z,0
2017-04-06T00:52:14.421Z,0
2017-04-06T00:53:36.246Z,0
2017-04-06T00:54:58.388Z,0
2017-04-06T00:56:20.234Z,0
2017-04-06T00:57:42.445Z,0
2017-04-06T00:59:04.709Z,0
2017-04-06T01:00:26.658Z,0
2017-04-06T01:01:48.585Z,0
2017-04-06T01:03:10.406Z,0
2017-04-06T01:04:33.125Z,0
2017-04-06T01:05:55.608Z,0
2017-04-06T01:07:17.734Z,0
2017-04-06T01:08:39.224Z,0
2017-04-06T01:10:01.343Z,0
2017-04-06T01:11:22.555Z,0
2017-04-06T01:12:44.424Z,0
2017-04-06T01:14:06.556Z,0
2017-04-06T01:15:28.316Z,0
2017-04-06T01:16:50.175Z,0
2017-04-06T01:18:11.989Z,0
2017-04-06T01:19:33.795Z,0
2017-04-06T01:20:55.881Z,0
2017-04-06T01:22:17.395Z,0
2017-04-06T01:23:39.535Z,0
2017-04-06T01:25:02.001Z,0
2017-04-06T01:26:23.828Z,0
2017-04-06T01:27:45.657Z,0
2017-04-06T01:29:08.140Z,0
2017-04-06T01:30:30.033Z,0
2017-04-06T01:31:52.528Z,0
2017-04-06T01:33:14.350Z,0
2017-04-06T01:34:35.863Z,0
2017-04-06T01:35:58.096Z,0
2017-04-06T01:37:20.876Z,0
2017-04-06T01:38:43.320Z,0
2017-04-06T01:40:05.457Z,0
2017-04-06T01:41:27.582Z,0
2017-04-06T01:42:49.995Z,0
2017-04-06T01:44:11.506Z,0
2017-04-06T01:45:33.015Z,0
2017-04-06T01:46:55.216Z,0
2017-04-06T01:48:17.697Z,0
2017-04-06T01:49:39.819Z,0
2017-04-06T01:51:01.641Z,0
2017-04-06T01:52:23.618Z,0
2017-04-06T01:53:46.046Z,0
2017-04-06T01:55:08.265Z,0
2017-04-06T01:56:30.064Z,0
2017-04-06T01:57:52.187Z,0
2017-04-06T01:59:14.259Z,0
2017-04-06T02:00:36.065Z,0
2017-04-06T02:01:57.886Z,0
2017-04-06T02:03:19.721Z,0
2017-04-06T02:04:41.493Z,0
2017-04-06T02:06:02.686Z,0
2017-04-06T02:07:25.135Z,0
2017-04-06T02:08:46.604Z,0
2017-04-06T02:10:09.088Z,0
2017-04-06T02:11:31.018Z,0
2017-04-06T02:12:53.309Z,0
2017-04-06T02:14:15.456Z,0
2017-04-06T02:15:38.220Z,0
2017-04-06T02:17:00.362Z,0
2017-04-06T02:18:22.493Z,0
2017-04-06T02:19:43.694Z,0
2017-04-06T02:21:05.179Z,0
2017-04-06T02:22:27.477Z,0
2017-04-06T02:23:49.742Z,0
2017-04-06T02:25:11.669Z,0
2017-04-06T02:26:34.496Z,0
2017-04-06T02:27:56.325Z,0
2017-04-06T02:29:18.235Z,0
2017-04-06T02:30:40.064Z,0
2017-04-06T02:32:01.863Z,0
2017-04-06T02:33:23.697Z,0
2017-04-06T02:34:45.814Z,0
2017-04-06T02:36:08.352Z,0
2017-04-06T02:37:30.500Z,0
2017-04-06T02:38:52.774Z,0
2017-04-06T02:40:15.301Z,0
2017-04-06T02:41:37.146Z,0
2017-04-06T02:43:00.782Z,0
2017-04-06T02:44:22.600Z,0
2017-04-06T02:45:44.750Z,0
2017-04-06T02:47:06.876Z,0
2017-04-06T02:48:29.258Z,0
2017-04-06T02:49:51.084Z,0
2017-04-06T02:51:12.606Z,0
2017-04-06T02:52:34.745Z,0
2017-04-06T02:53:57.520Z,0
2017-04-06T02:55:19.656Z,0
2017-04-06T02:56:41.465Z,0
2017-04-06T02:58:02.686Z,0
2017-04-06T02:59:24.935Z,0
2017-04-06T03:00:46.963Z,0
2017-04-06T03:02:08.803Z,0
2017-04-06T03:03:31.245Z,0
2017-04-06T03:04:54.046Z,0
2017-04-06T03:06:16.193Z,0
2017-04-06T03:07:37.699Z,0
2017-04-06T03:09:00.135Z,0
2017-04-06T03:10:22.617Z,0
2017-04-06T03:11:45.115Z,0
2017-04-06T03:13:06.299Z,0
2017-04-06T03:14:28.737Z,0
2017-04-06T03:15:50.974Z,0
2017-04-06T03:17:12.553Z,0
2017-04-06T03:18:34.776Z,0
2017-04-06T03:19:56.922Z,0
2017-04-06T03:21:19.339Z,0
2017-04-06T03:22:41.265Z,0
2017-04-06T03:24:02.463Z,0
2017-04-06T03:25:25.706Z,0
2017-04-06T03:26:47.826Z,0
2017-04-06T03:28:09.946Z,0
2017-04-06T03:29:31.451Z,0
2017-04-06T03:30:53.267Z,0
2017-04-06T03:32:15.747Z,0
2017-04-06T03:33:37.547Z,0
2017-04-06T03:34:59.690Z,0
2017-04-06T03:36:21.861Z,0
2017-04-06T03:37:44.341Z,0
2017-04-06T03:39:06.476Z,0
2017-04-06T03:40:27.968Z,0
2017-04-06T03:41:49.776Z,0
2017-04-06T03:43:12.254Z,0
2017-04-06T03:44:34.075Z,0
2017-04-06T03:45:56.298Z,0
2017-04-06T03:47:17.817Z,0
2017-04-06T03:48:39.937Z,0
2017-04-06T03:50:01.754Z,0
2017-04-06T03:51:23.891Z,0
2017-04-06T03:52:45.387Z,0
2017-04-06T03:54:08.134Z,0
2017-04-06T03:55:30.254Z,0
2017-04-06T03:56:52.086Z,0
2017-04-06T03:58:13.907Z,0
2017-04-06T03:59:35.330Z,0
2017-04-06T04:00:56.825Z,0
2017-04-06T04:02:18.325Z,0
2017-04-06T04:03:39.506Z,0
2017-04-06T04:05:01.810Z,0
2017-04-06T04:06:23.950Z,0
2017-04-06T04:07:46.086Z,0
2017-04-06T04:09:07.914Z,0
2017-04-06T04:10:29.671Z,0
2017-04-06T04:11:54.812Z,0
2017-04-06T04:13:50.536Z,4
2017-04-06T04:15:42.616Z,4
2017-04-06T04:17:04.708Z,4
2017-04-06T04:18:26.517Z,4
2017-04-06T04:19:48.655Z,4
2017-04-06T04:21:10.833Z,4
2017-04-06T04:22:32.026Z,8
2017-04-06T04:23:53.520Z,8
2017-04-06T04:25:17.057Z,12
2017-04-06T04:30:34.825Z,24
2017-04-06T04:31:57.015Z,28
2017-04-06T04:33:19.784Z,40
2017-04-06T04:35:02.848Z,56
2017-04-06T04:36:36.577Z,72
2017-04-06T04:37:59.107Z,84
2017-04-06T04:39:21.258Z,88
2017-04-06T04:40:42.468Z,100
2017-04-06T04:42:05.234Z,112
2017-04-06T04:43:27.837Z,140
2017-04-06T04:44:49.754Z,164
2017-04-06T04:46:11.910Z,180
2017-04-06T04:47:34.326Z,208
2017-04-06T04:48:56.258Z,236
2017-04-06T04:50:18.741Z,288
2017-04-06T04:51:40.574Z,364
2017-04-06T04:53:02.987Z,424
2017-04-06T04:54:24.825Z,452
2017-04-06T04:55:47.116Z,484
2017-04-06T04:57:09.037Z,528
2017-04-06T04:58:31.099Z,612
2017-04-06T04:59:53.234Z,688
2017-04-06T05:01:15.056Z,748
2017-04-06T05:02:37.187Z,812
2017-04-06T05:03:59.556Z,836
2017-04-06T05:05:22.006Z,844
2017-04-06T05:06:43.840Z,936
2017-04-06T05:08:06.114Z,1048
2017-04-06T05:09:28.277Z,1104
2017-04-06T05:10:49.803Z,1200
2017-04-06T05:12:11.288Z,1432
2017-04-06T05:13:33.146Z,1696
2017-04-06T05:14:55.854Z,1872
2017-04-06T05:16:17.736Z,2152
2017-04-06T05:17:39.585Z,2356
2017-04-06T05:19:02.203Z,2444
2017-04-06T05:20:24.685Z,2504
2017-04-06T05:21:46.837Z,2508
2017-04-06T05:23:08.357Z,2616
2017-04-06T05:24:30.797Z,2664
2017-04-06T05:25:52.987Z,2760
2017-04-06T05:27:14.812Z,2876
2017-04-06T05:28:36.047Z,3092
2017-04-06T05:29:57.578Z,3096
2017-04-06T05:31:19.974Z,3160
2017-04-06T05:32:42.458Z,3448
2017-04-06T05:34:04.263Z,3672
2017-04-06T05:35:26.186Z,3640
2017-04-06T05:36:48.280Z,3592
2017-04-06T05:38:10.118Z,4112
2017-04-06T05:39:32.565Z,4480
2017-04-06T05:40:54.426Z,5032
2017-04-06T05:42:16.260Z,5508
2017-04-06T05:43:38.728Z,5872
2017-04-06T05:45:00.555Z,5992
2017-04-06T05:46:22.379Z,6100
2017-04-06T05:47:44.769Z,6416
2017-04-06T05:49:06.289Z,7200
2017-04-06T05:50:28.437Z,7420
2017-04-06T05:51:50.296Z,7320
2017-04-06T05:53:12.699Z,6856
2017-04-06T05:54:34.213Z,7468
2017-04-06T05:55:56.401Z,5800
2017-04-06T05:57:18.885Z,5748
2017-04-06T05:58:41.262Z,6256
2017-04-06T06:00:03.437Z,6724
2017-04-06T06:01:24.969Z,7080
2017-04-06T06:02:47.445Z,8316
2017-04-06T06:04:09.848Z,10148
2017-04-06T06:05:31.655Z,7924
2017-04-06T06:06:53.474Z,15552
2017-04-06T06:08:15.687Z,10024
2017-04-06T06:09:38.119Z,9448
2017-04-06T06:11:00.609Z,9624
2017-04-06T06:12:22.738Z,10188
2017-04-06T06:13:44.884Z,14368
2017-04-06T06:15:07.619Z,10712
2017-04-06T06:16:29.519Z,11188
2017-04-06T06:17:51.349Z,8520
2017-04-06T06:19:12.866Z,10372
2017-04-06T06:20:35.007Z,17248
2017-04-06T06:21:57.167Z,11484
2017-04-06T06:23:19.328Z,10364
2017-04-06T06:24:41.567Z,12200
2017-04-06T06:26:04.003Z,12604
2017-04-06T06:27:25.593Z,11040
2017-04-06T06:28:47.439Z,31744
2017-04-06T06:30:10.031Z,12056
2017-04-06T06:31:32.468Z,10260
2017-04-06T06:32:53.960Z,9420
2017-04-06T06:34:16.236Z,10980
2017-04-06T06:35:38.066Z,34048
2017-04-06T06:37:00.646Z,32896
2017-04-06T06:38:22.178Z,39136
2017-04-06T06:39:44.286Z,38336
2017-04-06T06:41:06.105Z,33120
2017-04-06T06:42:28.256Z,18528
2017-04-06T06:43:49.766Z,17248
2017-04-06T06:45:11.206Z,32000
2017-04-06T06:46:33.353Z,15284
2017-04-06T06:47:57.196Z,38560
2017-04-06T06:49:18.486Z,31648
2017-04-06T06:50:39.380Z,22080
2017-04-06T06:52:01.258Z,28288
2017-04-06T06:53:23.658Z,23808
2017-04-06T06:54:45.154Z,19808
2017-04-06T06:56:07.300Z,24960
2017-04-06T06:57:29.149Z,17216
2017-04-06T06:58:51.247Z,16832
2017-04-06T07:00:13.063Z,21760
2017-04-06T07:01:34.737Z,16800
2017-04-06T07:02:57.204Z,15808
2017-04-06T07:04:19.686Z,13856
2017-04-06T07:05:42.211Z,17824
2017-04-06T07:07:04.477Z,22368
2017-04-06T07:08:26.362Z,23712
2017-04-06T07:09:48.428Z,21152
2017-04-06T07:11:10.894Z,13468
2017-04-06T07:12:33.064Z,14732
2017-04-06T07:13:55.218Z,15552
2017-04-06T07:15:17.670Z,14556
2017-04-06T07:16:40.028Z,14736
2017-04-06T07:18:02.199Z,14740
2017-04-06T07:19:23.444Z,15068
2017-04-06T07:20:45.566Z,14744
2017-04-06T07:22:07.404Z,13868
2017-04-06T07:23:29.942Z,12592
2017-04-06T07:24:52.093Z,12384
2017-04-06T07:26:14.506Z,14336
2017-04-06T07:27:36.317Z,16832
2017-04-06T07:28:58.145Z,16800
2017-04-06T07:30:19.666Z,17536
2017-04-06T07:31:41.675Z,16896
2017-04-06T07:33:03.517Z,16544
2017-04-06T07:34:25.736Z,13500
2017-04-06T07:35:47.257Z,15868
2017-04-06T07:37:10.005Z,13752
2017-04-06T07:38:32.497Z,11596
2017-04-06T07:39:54.630Z,10520
2017-04-06T07:41:15.812Z,10232
2017-04-06T07:42:37.684Z,12236
2017-04-06T07:43:59.845Z,16768
2017-04-06T07:45:21.664Z,13520
2017-04-06T07:46:43.176Z,12144
2017-04-06T07:48:05.643Z,13216
2017-04-06T07:49:27.809Z,14660
2017-04-06T07:50:49.657Z,13204
2017-04-06T07:52:12.137Z,11516
2017-04-06T07:53:34.220Z,15544
2017-04-06T07:54:56.694Z,14376
2017-04-06T07:56:18.892Z,14248
2017-04-06T07:57:40.393Z,18656
2017-04-06T07:59:02.377Z,18176
2017-04-06T08:00:23.912Z,15984
2017-04-06T08:01:45.749Z,16288
2017-04-06T08:03:07.257Z,15872
2017-04-06T08:04:30.012Z,14808
2017-04-06T08:05:51.565Z,15468
2017-04-06T08:07:13.753Z,11492
2017-04-06T08:08:35.605Z,12496
2017-04-06T08:09:57.736Z,17824
2017-04-06T08:11:19.249Z,14492
2017-04-06T08:12:40.767Z,14584
2017-04-06T08:14:02.965Z,18528
2017-04-06T08:15:25.379Z,18592
2017-04-06T08:16:47.526Z,13368
2017-04-06T08:18:42.005Z,15456
2017-04-06T08:20:03.587Z,15724
2017-04-06T08:21:26.116Z,12716
2017-04-06T08:22:48.346Z,14344
2017-04-06T08:24:10.485Z,16800
2017-04-06T08:25:32.611Z,18112
2017-04-06T08:26:55.036Z,19264
2017-04-06T08:28:17.193Z,18976
2017-04-06T08:29:39.332Z,16156
2017-04-06T08:31:01.154Z,16576
2017-04-06T08:32:22.645Z,15992
2017-04-06T08:33:44.463Z,16864
2017-04-06T08:35:06.604Z,19200
2017-04-06T08:36:28.875Z,18048
2017-04-06T08:37:51.018Z,18688
2017-04-06T08:39:13.277Z,20192
2017-04-06T08:40:35.115Z,20160
2017-04-06T08:41:56.938Z,18976
2017-04-06T08:43:19.129Z,19392
2017-04-06T08:44:41.387Z,20128
2017-04-06T08:46:03.033Z,20448
2017-04-06T08:47:25.190Z,19200
2017-04-06T08:48:47.314Z,16704
2017-04-06T08:50:09.558Z,18656
2017-04-06T08:51:31.687Z,18208
2017-04-06T08:52:53.287Z,15872
2017-04-06T08:54:15.684Z,15036
2017-04-06T08:55:37.637Z,15400
2017-04-06T08:57:00.106Z,17280
2017-04-06T08:58:21.955Z,18784
2017-04-06T08:59:44.110Z,19776
2017-04-06T09:01:06.236Z,19616
2017-04-06T09:02:28.064Z,19264
2017-04-06T09:03:50.227Z,18432
2017-04-06T09:05:13.010Z,18784
2017-04-06T09:06:35.477Z,17152
2017-04-06T09:07:57.325Z,16928
2017-04-06T09:09:18.621Z,18432
2017-04-06T09:10:40.852Z,20320
2017-04-06T09:12:02.355Z,18944
2017-04-06T09:13:23.873Z,18752
2017-04-06T09:14:46.305Z,16480
2017-04-06T09:16:08.415Z,17248
2017-04-06T09:17:30.045Z,18368
2017-04-06T09:18:52.165Z,18272
2017-04-06T09:20:13.978Z,16320
2017-04-06T09:21:36.135Z,17376
2017-04-06T09:22:57.762Z,19360
2017-04-06T09:24:19.685Z,17312
2017-04-06T09:25:42.138Z,17248
2017-04-06T09:27:04.213Z,16992
2017-04-06T09:28:26.382Z,16992
2017-04-06T09:29:48.518Z,19872
2017-04-06T09:31:10.698Z,18432
2017-04-06T09:32:33.137Z,15312
2017-04-06T09:33:54.631Z,13596
2017-04-06T09:35:16.527Z,15304
2017-04-06T09:36:38.687Z,16992
2017-04-06T09:38:01.158Z,19040
2017-04-06T09:39:23.644Z,18912
2017-04-06T09:40:45.548Z,18752
2017-04-06T09:42:07.707Z,20224
2017-04-06T09:43:29.961Z,19712
2017-04-06T09:44:51.798Z,17472
2017-04-06T09:46:13.826Z,17152
2017-04-06T09:47:35.659Z,19168
2017-04-06T09:48:58.465Z,18880
2017-04-06T09:50:20.619Z,19072
2017-04-06T09:51:42.135Z,18592
2017-04-06T09:53:03.628Z,17632
2017-04-06T09:54:26.109Z,17216
2017-04-06T09:55:47.965Z,18176
2017-04-06T09:57:10.406Z,18016
2017-04-06T09:58:32.236Z,15652
2017-04-06T09:59:54.467Z,15408
2017-04-06T10:01:16.489Z,16480
2017-04-06T10:02:38.996Z,15748
2017-04-06T10:04:00.907Z,15804
2017-04-06T10:05:23.346Z,18752
2017-04-06T10:06:45.885Z,18688
2017-04-06T10:08:08.350Z,19744
2017-04-06T10:09:30.516Z,18432
2017-04-06T10:10:52.606Z,19424
2017-04-06T10:12:14.850Z,17312
2017-04-06T10:13:36.393Z,14644
2017-04-06T10:14:58.223Z,11564
2017-04-06T10:16:19.859Z,10428
2017-04-06T10:17:41.786Z,10544
2017-04-06T10:19:03.647Z,12796
2017-04-06T10:20:25.915Z,15680
2017-04-06T10:21:48.520Z,17216
2017-04-06T10:23:11.032Z,18400
2017-04-06T10:24:33.187Z,16576
2017-04-06T10:25:55.337Z,15020
2017-04-06T10:27:17.847Z,16480
2017-04-06T10:28:39.985Z,16544
2017-04-06T10:30:02.120Z,17600
2017-04-06T10:31:24.306Z,16960
2017-04-06T10:32:46.810Z,15580
2017-04-06T10:34:09.102Z,16704
2017-04-06T10:35:30.662Z,18240
2017-04-06T10:36:52.506Z,18752
2017-04-06T10:38:14.895Z,17760
2017-04-06T10:39:37.047Z,15272
2017-04-06T10:40:58.889Z,13080
2017-04-06T10:42:20.706Z,11784
2017-04-06T10:43:42.841Z,10268
2017-04-06T10:45:04.663Z,13620
2017-04-06T10:46:25.855Z,16960
2017-04-06T10:47:48.019Z,16544
2017-04-06T10:49:10.467Z,14916
2017-04-06T10:50:32.605Z,16480
2017-04-06T10:51:55.157Z,19072
2017-04-06T10:53:17.286Z,18720
2017-04-06T10:54:39.062Z,18656
2017-04-06T10:56:00.874Z,19712
2017-04-06T10:57:22.775Z,21568
2017-04-06T10:58:44.916Z,20416
2017-04-06T11:00:07.049Z,16332
2017-04-06T11:01:28.877Z,13088
2017-04-06T11:02:51.016Z,10752
2017-04-06T11:04:12.518Z,9000
2017-04-06T11:05:34.706Z,9696
2017-04-06T11:06:56.877Z,12800
2017-04-06T11:08:19.163Z,14040
2017-04-06T11:09:40.686Z,14288
2017-04-06T11:11:02.546Z,13352
2017-04-06T11:12:24.050Z,11148
2017-04-06T11:13:46.211Z,10156
2017-04-06T11:15:07.773Z,11456
2017-04-06T11:16:30.284Z,13632
2017-04-06T11:17:52.723Z,17216
2017-04-06T11:19:14.764Z,15620
2017-04-06T11:20:37.225Z,12340
2017-04-06T11:21:59.617Z,10984
2017-04-06T11:23:21.460Z,11596
2017-04-06T11:24:43.952Z,13140
2017-04-06T11:26:06.213Z,16116
2017-04-06T11:27:28.935Z,17888
2017-04-06T11:28:51.087Z,16040
2017-04-06T11:30:13.257Z,12444
2017-04-06T11:31:35.392Z,9508
2017-04-06T11:32:58.305Z,10776
2017-04-06T11:34:20.925Z,16320
2017-04-06T11:35:43.417Z,18976
2017-04-06T11:37:05.586Z,18656
2017-04-06T11:38:28.307Z,17056
2017-04-06T11:39:50.896Z,15628
2017-04-06T11:41:13.154Z,14448
2017-04-06T11:42:34.740Z,15920
2017-04-06T11:43:56.872Z,18048
2017-04-06T11:45:18.722Z,17568
2017-04-06T11:46:40.236Z,15888
2017-04-06T11:48:02.437Z,14920
2017-04-06T11:49:24.787Z,15148
2017-04-06T11:50:46.708Z,13160
2017-04-06T11:52:08.546Z,13584
2017-04-06T11:53:30.373Z,15132
2017-04-06T11:54:52.544Z,15812
2017-04-06T11:56:14.389Z,14796
2017-04-06T11:57:36.258Z,12940
2017-04-06T11:58:58.439Z,15172
2017-04-06T12:00:20.528Z,17248
2017-04-06T12:01:43.002Z,18688
2017-04-06T12:03:05.280Z,17600
2017-04-06T12:04:27.766Z,16252
2017-04-06T12:05:50.208Z,14888
2017-04-06T12:07:12.671Z,10348
2017-04-06T12:08:34.499Z,9304
2017-04-06T12:09:56.343Z,10244
2017-04-06T12:11:18.475Z,12228
2017-04-06T12:12:40.277Z,14428
2017-04-06T12:14:02.363Z,17760
2017-04-06T12:15:24.531Z,17024
2017-04-06T12:16:47.341Z,15376
2017-04-06T12:18:09.528Z,16048
2017-04-06T12:19:32.014Z,16512
2017-04-06T12:20:53.846Z,15868
2017-04-06T12:22:15.986Z,13932
2017-04-06T12:23:38.447Z,11516
2017-04-06T12:25:00.926Z,11948
2017-04-06T12:26:22.118Z,12296
2017-04-06T12:27:44.607Z,11728
2017-04-06T12:29:07.117Z,11348
2017-04-06T12:31:01.024Z,7948
2017-04-06T12:32:23.175Z,8244
2017-04-06T12:33:45.280Z,11316
2017-04-06T12:35:07.126Z,14720
2017-04-06T12:36:29.348Z,17952
2017-04-06T12:37:51.746Z,18496
2017-04-06T12:39:13.986Z,17344
2017-04-06T12:40:36.146Z,17984
2017-04-06T12:41:58.306Z,18400
2017-04-06T12:43:20.850Z,16000
2017-04-06T12:44:43.337Z,15180
2017-04-06T12:46:05.785Z,14240
2017-04-06T12:47:27.315Z,13552
2017-04-06T12:48:49.451Z,11336
2017-04-06T12:50:11.623Z,9488
2017-04-06T12:51:33.465Z,10960
2017-04-06T12:52:55.915Z,14660
2017-04-06T12:54:18.165Z,15304
2017-04-06T12:55:40.418Z,14932
2017-04-06T12:57:02.273Z,14888
2017-04-06T12:58:24.735Z,15436
2017-04-06T12:59:47.477Z,14468
2017-04-06T13:01:09.408Z,14428
2017-04-06T13:02:31.629Z,14092
2017-04-06T13:03:53.806Z,10540
2017-04-06T13:05:18.218Z,8036
2017-04-06T13:07:12.371Z,7760
2017-04-06T13:08:34.538Z,7472
2017-04-06T13:09:56.360Z,7104
2017-04-06T13:11:18.753Z,6868
2017-04-06T13:12:40.918Z,7064
2017-04-06T13:14:03.389Z,7808
2017-04-06T13:15:25.563Z,8996
2017-04-06T13:16:47.718Z,10032
2017-04-06T13:18:09.538Z,10936
2017-04-06T13:19:31.363Z,11144
2017-04-06T13:20:53.134Z,8400
2017-04-06T13:22:15.277Z,6856
2017-04-06T13:23:37.754Z,7004
2017-04-06T13:24:59.968Z,7116
2017-04-06T13:26:22.096Z,7308
2017-04-06T13:27:44.246Z,8708
2017-04-06T13:29:06.395Z,10292
2017-04-06T13:30:28.563Z,8196
2017-04-06T13:31:50.641Z,7492
2017-04-06T13:33:12.496Z,7392
2017-04-06T13:34:34.406Z,7568
2017-04-06T13:35:56.879Z,7052
2017-04-06T13:37:19.586Z,8528
2017-04-06T13:38:41.427Z,10400
2017-04-06T13:40:03.664Z,11792
2017-04-06T13:41:25.822Z,13412
2017-04-06T13:42:47.966Z,13044
2017-04-06T13:44:10.137Z,13192
2017-04-06T13:45:32.158Z,14752
2017-04-06T13:46:54.309Z,14432
2017-04-06T13:48:16.708Z,11344
2017-04-06T13:49:38.883Z,10204
2017-04-06T13:51:01.015Z,9760
2017-04-06T13:52:23.160Z,11952
2017-04-06T13:53:45.893Z,15060
2017-04-06T13:55:08.055Z,15404
2017-04-06T13:56:30.230Z,15480
2017-04-06T13:57:52.454Z,15224
2017-04-06T13:59:14.536Z,14280
2017-04-06T14:00:36.416Z,14052
2017-04-06T14:01:58.571Z,14660
2017-04-06T14:03:20.775Z,14924
2017-04-06T14:04:42.556Z,13280
2017-04-06T14:06:04.702Z,12308
2017-04-06T14:07:26.971Z,11632
2017-04-06T14:08:49.145Z,12108
2017-04-06T14:10:11.556Z,12556
2017-04-06T14:11:34.047Z,13776
2017-04-06T14:12:55.894Z,12752
2017-04-06T14:14:17.754Z,11036
2017-04-06T14:15:39.243Z,11120
2017-04-06T14:17:01.109Z,12744
2017-04-06T14:18:22.682Z,14636
2017-04-06T14:19:44.839Z,14128
2017-04-06T14:21:07.324Z,12672
2017-04-06T14:22:29.804Z,10232
2017-04-06T14:23:51.655Z,10432
2017-04-06T14:25:13.831Z,10972
2017-04-06T14:26:36.385Z,8464
2017-04-06T14:27:58.305Z,8124
2017-04-06T14:29:20.471Z,9480
2017-04-06T14:30:41.989Z,11164
2017-04-06T14:32:04.515Z,10808
2017-04-06T14:33:26.546Z,10912
2017-04-06T14:34:48.737Z,12424
2017-04-06T14:36:11.255Z,14408
2017-04-06T14:37:33.803Z,15348
2017-04-06T14:38:55.633Z,15024
2017-04-06T14:40:18.096Z,14192
2017-04-06T14:41:40.294Z,13348
2017-04-06T14:43:03.089Z,13584
2017-04-06T14:44:25.233Z,13824
2017-04-06T14:45:47.708Z,13596
2017-04-06T14:47:09.923Z,13012
2017-04-06T14:48:32.085Z,12496
2017-04-06T14:49:53.918Z,12260
2017-04-06T14:51:16.056Z,12480
2017-04-06T14:52:38.614Z,12568
2017-04-06T14:54:00.863Z,11376
2017-04-06T14:55:23.063Z,11840
2017-04-06T14:56:44.878Z,11852
2017-04-06T14:58:07.046Z,11796
2017-04-06T14:59:29.184Z,11784
2017-04-06T15:00:51.696Z,11424
2017-04-06T15:02:12.917Z,9728
2017-04-06T15:03:35.386Z,8456
2017-04-06T15:04:57.852Z,7940
2017-04-06T15:06:20.480Z,7956
2017-04-06T15:07:42.634Z,8424
2017-04-06T15:09:05.097Z,8356
2017-04-06T15:10:27.496Z,8080
2017-04-06T15:11:49.375Z,8064
2017-04-06T15:13:11.542Z,11192
2017-04-06T15:14:33.064Z,8196
2017-04-06T15:15:55.837Z,7000
2017-04-06T15:17:17.501Z,7408
2017-04-06T15:18:39.035Z,7228
2017-04-06T15:20:01.335Z,7896
2017-04-06T15:21:23.782Z,10108
2017-04-06T15:22:44.998Z,10748
2017-04-06T15:24:07.153Z,9192
2017-04-06T15:25:29.610Z,8408
2017-04-06T15:26:51.766Z,8168
2017-04-06T15:28:13.684Z,8168
2017-04-06T15:29:35.521Z,8716
2017-04-06T15:30:58.026Z,9588
2017-04-06T15:32:20.531Z,9740
2017-04-06T15:33:42.686Z,10748
2017-04-06T15:35:04.899Z,11484
2017-04-06T15:36:27.458Z,11580
2017-04-06T15:37:50.216Z,11344
2017-04-06T15:39:12.476Z,10872
2017-04-06T15:40:34.030Z,10608
2017-04-06T15:41:56.216Z,10160
2017-04-06T15:43:19.025Z,9864
2017-04-06T15:44:41.296Z,9740
2017-04-06T15:46:03.511Z,9564
2017-04-06T15:47:25.690Z,9760
2017-04-06T15:48:48.017Z,10108
2017-04-06T15:50:09.732Z,9984
2017-04-06T15:51:32.667Z,8996
2017-04-06T15:52:54.946Z,8168
2017-04-06T15:54:17.887Z,7488
2017-04-06T15:55:40.096Z,7100
2017-04-06T15:57:02.628Z,7248
2017-04-06T15:58:24.803Z,6972
2017-04-06T15:59:47.327Z,6784
2017-04-06T16:01:09.257Z,6944
2017-04-06T16:02:31.205Z,7200
2017-04-06T16:03:53.707Z,7256
2017-04-06T16:05:15.887Z,7480
2017-04-06T16:06:37.685Z,7556
2017-04-06T16:08:00.168Z,7436
2017-04-06T16:09:22.700Z,7360
2017-04-06T16:10:45.166Z,7288
2017-04-06T16:12:07.650Z,7084
2017-04-06T16:13:30.274Z,6832
2017-04-06T16:14:52.922Z,6640
2017-04-06T16:16:15.898Z,6524
2017-04-06T16:17:38.415Z,6348
2017-04-06T16:19:00.623Z,6008
2017-04-06T16:20:22.787Z,5808
2017-04-06T16:21:45.589Z,5620
2017-04-06T16:23:07.815Z,5208
2017-04-06T16:24:30.005Z,4776
2017-04-06T16:25:51.874Z,4440
2017-04-06T16:27:14.284Z,4208
2017-04-06T16:28:36.283Z,4220
2017-04-06T16:29:58.804Z,4680
2017-04-06T16:31:21.358Z,5096
2017-04-06T16:32:44.097Z,5824
2017-04-06T16:34:06.408Z,6192
2017-04-06T16:35:29.062Z,6056
2017-04-06T16:36:50.914Z,5924
2017-04-06T16:38:13.518Z,5680
2017-04-06T16:39:35.349Z,5884
2017-04-06T16:40:57.406Z,6232
2017-04-06T16:42:19.605Z,6644
2017-04-06T16:43:42.457Z,6512
2017-04-06T16:45:04.936Z,6232
2017-04-06T16:46:27.144Z,5848
2017-04-06T16:47:49.791Z,5528
2017-04-06T16:49:12.574Z,5268
2017-04-06T16:50:34.888Z,5048
2017-04-06T16:52:28.847Z,4716
2017-04-06T16:53:51.042Z,4440
2017-04-06T16:55:18.420Z,4016
2017-04-06T16:56:40.584Z,3768
2017-04-06T16:58:02.883Z,3612
2017-04-06T16:59:25.931Z,3400
2017-04-06T17:00:48.446Z,3364
2017-04-06T17:02:10.306Z,3384
2017-04-06T17:03:32.833Z,3420
2017-04-06T17:04:55.587Z,3356
2017-04-06T17:06:17.878Z,3332
2017-04-06T17:07:40.026Z,3324
2017-04-06T17:09:03.027Z,3204
2017-04-06T17:10:25.796Z,3076
2017-04-06T17:11:48.997Z,2900
2017-04-06T17:13:12.422Z,2724
2017-04-06T17:14:36.932Z,2548
2017-04-06T17:15:59.657Z,2384
2017-04-06T17:17:22.145Z,2176
2017-04-06T17:18:44.368Z,2148
2017-04-06T17:20:07.054Z,2220
2017-04-06T17:21:31.471Z,2196
2017-04-06T17:22:54.519Z,2136
2017-04-06T17:24:16.515Z,1992
2017-04-06T17:25:39.840Z,1892
2017-04-06T17:27:03.798Z,1944
2017-04-06T17:28:26.870Z,1912
2017-04-06T17:29:49.239Z,1808
2017-04-06T17:31:11.815Z,1708
2017-04-06T17:32:36.109Z,1700
2017-04-06T17:33:59.599Z,1680
2017-04-06T17:35:22.314Z,1628
2017-04-06T17:36:44.673Z,1608
2017-04-06T17:38:07.187Z,1600
2017-04-06T17:39:29.656Z,1612
2017-04-06T17:40:52.126Z,1624
2017-04-06T17:42:13.965Z,1584
2017-04-06T17:43:36.377Z,1500
2017-04-06T17:44:58.226Z,1388
2017-04-06T17:46:20.391Z,1284
2017-04-06T17:47:42.619Z,1204
2017-04-06T17:49:05.193Z,1084
2017-04-06T17:50:27.672Z,1008
2017-04-06T17:51:49.185Z,920
2017-04-06T17:53:11.675Z,828
2017-04-06T17:54:33.478Z,748
2017-04-06T17:55:55.387Z,664
2017-04-06T17:57:17.546Z,592
2017-04-06T17:58:39.827Z,536
2017-04-06T18:00:02.256Z,476
2017-04-06T18:01:23.881Z,424
2017-04-06T18:02:46.410Z,376
2017-04-06T18:04:08.629Z,332
2017-04-06T18:05:30.807Z,292
2017-04-06T18:06:53.188Z,248
2017-04-06T18:08:15.045Z,216
2017-04-06T18:09:36.936Z,188
2017-04-06T18:10:59.709Z,156
2017-04-06T18:12:22.227Z,128
2017-04-06T18:13:44.506Z,112
2017-04-06T18:15:06.688Z,88
2017-04-06T18:16:29.486Z,68
2017-04-06T18:17:51.644Z,56
2017-04-06T18:19:13.811Z,48
2017-04-06T18:20:36.916Z,44
2017-04-06T18:21:59.721Z,32
2017-04-06T18:23:22.198Z,56
2017-04-06T18:24:44.058Z,52
2017-04-06T18:26:05.695Z,48
2017-04-06T18:27:27.837Z,44
2017-04-06T18:28:50.016Z,44
2017-04-06T18:30:12.185Z,40
2017-04-06T18:31:34.381Z,36
2017-04-06T18:32:56.893Z,36
2017-04-06T18:34:19.440Z,36